sensor_id;sensor_type;location;lat;lon;timestamp;P1;durP1;ratioP1;P2;durP2;ratioP2
72115;SDS011;59991;52.140;5.428;2023-03-14T00:00:31;15.30;;;4.68;;
72115;SDS011;59991;52.140;5.428;2023-03-14T00:01:09;16.83;;;5.03;;
72115;SDS011;59991;52.140;5.428;2023-03-14T00:01:46;14.88;;;4.75;;
72115;SDS011;59991;52.140;5.428;2023-03-14T00:02:17;20.17;;;5.18;;
72115;SDS011;59991;52.140;5.428;2023-03-14T00:02:52;21.42;;;5.47;;
72115;SDS011;59991;52.140;5.428;2023-03-14T00:03:24;17.42;;;5.90;;
72115;SDS011;59991;52.140;5.428;2023-03-14T00:03:55;20.03;;;6.20;;
72115;SDS011;59991;52.140;5.428;2023-03-14T00:04:27;18.45;;;5.20;;
72115;SDS011;59991;52.140;5.428;2023-03-14T00:04:58;15.20;;;5.78;;
72115;SDS011;59991;52.140;5.428;2023-03-14T00:05:30;17.52;;;6.30;;
72115;SDS011;59991;52.140;5.428;2023-03-14T00:06:02;17.25;;;5.18;;
72115;SDS011;59991;52.140;5.428;2023-03-14T00:06:35;15.60;;;5.45;;
72115;SDS011;59991;52.140;5.428;2023-03-14T00:07:06;16.35;;;5.88;;
72115;SDS011;59991;52.140;5.428;2023-03-14T00:07:38;18.67;;;5.93;;
72115;SDS011;59991;52.140;5.428;2023-03-14T00:08:10;15.70;;;5.90;;
72115;SDS011;59991;52.140;5.428;2023-03-14T00:08:44;17.17;;;5.25;;
72115;SDS011;59991;52.140;5.428;2023-03-14T00:09:16;14.60;;;5.50;;
72115;SDS011;59991;52.140;5.428;2023-03-14T00:09:48;20.08;;;5.85;;
72115;SDS011;59991;52.140;5.428;2023-03-14T00:10:19;14.75;;;5.60;;
72115;SDS011;59991;52.140;5.428;2023-03-14T00:10:51;15.15;;;6.15;;
72115;SDS011;59991;52.140;5.428;2023-03-14T00:11:22;19.88;;;5.78;;
72115;SDS011;59991;52.140;5.428;2023-03-14T00:11:54;20.23;;;6.57;;
72115;SDS011;59991;52.140;5.428;2023-03-14T00:12:25;17.65;;;5.10;;
72115;SDS011;59991;52.140;5.428;2023-03-14T00:12:57;17.98;;;5.47;;
72115;SDS011;59991;52.140;5.428;2023-03-14T00:13:28;15.50;;;5.78;;
72115;SDS011;59991;52.140;5.428;2023-03-14T00:13:59;13.75;;;4.45;;
72115;SDS011;59991;52.140;5.428;2023-03-14T00:14:31;18.63;;;5.90;;
72115;SDS011;59991;52.140;5.428;2023-03-14T00:15:03;14.25;;;4.72;;
72115;SDS011;59991;52.140;5.428;2023-03-14T00:15:35;12.13;;;5.43;;
72115;SDS011;59991;52.140;5.428;2023-03-14T00:16:11;15.20;;;5.22;;
72115;SDS011;59991;52.140;5.428;2023-03-14T00:16:46;14.23;;;5.13;;
72115;SDS011;59991;52.140;5.428;2023-03-14T00:17:18;11.75;;;4.63;;
72115;SDS011;59991;52.140;5.428;2023-03-14T00:17:49;18.38;;;5.85;;
72115;SDS011;59991;52.140;5.428;2023-03-14T00:18:21;15.65;;;5.68;;
72115;SDS011;59991;52.140;5.428;2023-03-14T00:18:53;18.42;;;5.40;;
72115;SDS011;59991;52.140;5.428;2023-03-14T00:19:25;19.33;;;5.35;;
72115;SDS011;59991;52.140;5.428;2023-03-14T00:19:56;15.93;;;5.63;;
72115;SDS011;59991;52.140;5.428;2023-03-14T00:20:27;16.30;;;5.85;;
72115;SDS011;59991;52.140;5.428;2023-03-14T00:20:59;14.23;;;5.15;;
72115;SDS011;59991;52.140;5.428;2023-03-14T00:21:31;18.15;;;6.07;;
72115;SDS011;59991;52.140;5.428;2023-03-14T00:22:03;18.60;;;6.60;;
72115;SDS011;59991;52.140;5.428;2023-03-14T00:22:35;14.23;;;4.90;;
72115;SDS011;59991;52.140;5.428;2023-03-14T00:23:07;15.23;;;5.38;;
72115;SDS011;59991;52.140;5.428;2023-03-14T00:23:39;21.23;;;6.05;;
72115;SDS011;59991;52.140;5.428;2023-03-14T00:24:12;15.70;;;5.15;;
72115;SDS011;59991;52.140;5.428;2023-03-14T00:24:44;13.50;;;5.65;;
72115;SDS011;59991;52.140;5.428;2023-03-14T00:25:15;21.53;;;5.30;;
72115;SDS011;59991;52.140;5.428;2023-03-14T00:25:47;20.27;;;5.43;;
72115;SDS011;59991;52.140;5.428;2023-03-14T00:26:19;16.48;;;5.85;;
72115;SDS011;59991;52.140;5.428;2023-03-14T00:26:52;19.88;;;5.90;;
72115;SDS011;59991;52.140;5.428;2023-03-14T00:27:23;14.63;;;6.13;;
72115;SDS011;59991;52.140;5.428;2023-03-14T00:27:54;18.85;;;4.95;;
72115;SDS011;59991;52.140;5.428;2023-03-14T00:28:26;21.83;;;5.70;;
72115;SDS011;59991;52.140;5.428;2023-03-14T00:28:58;16.77;;;5.63;;
72115;SDS011;59991;52.140;5.428;2023-03-14T00:29:30;19.52;;;5.45;;
72115;SDS011;59991;52.140;5.428;2023-03-14T00:30:01;18.65;;;5.97;;
72115;SDS011;59991;52.140;5.428;2023-03-14T00:30:33;20.40;;;5.50;;
72115;SDS011;59991;52.140;5.428;2023-03-14T00:31:05;19.98;;;4.53;;
72115;SDS011;59991;52.140;5.428;2023-03-14T00:31:38;11.50;;;4.10;;
72115;SDS011;59991;52.140;5.428;2023-03-14T00:32:10;19.98;;;4.45;;
72115;SDS011;59991;52.140;5.428;2023-03-14T00:32:42;18.38;;;5.47;;
72115;SDS011;59991;52.140;5.428;2023-03-14T00:33:14;18.55;;;4.85;;
72115;SDS011;59991;52.140;5.428;2023-03-14T00:33:45;20.38;;;5.75;;
72115;SDS011;59991;52.140;5.428;2023-03-14T00:34:17;16.83;;;4.30;;
72115;SDS011;59991;52.140;5.428;2023-03-14T00:34:48;14.75;;;4.53;;
72115;SDS011;59991;52.140;5.428;2023-03-14T00:35:20;15.50;;;4.82;;
72115;SDS011;59991;52.140;5.428;2023-03-14T00:36:05;20.97;;;4.80;;
72115;SDS011;59991;52.140;5.428;2023-03-14T00:36:40;22.17;;;6.32;;
72115;SDS011;59991;52.140;5.428;2023-03-14T00:37:11;22.25;;;6.07;;
72115;SDS011;59991;52.140;5.428;2023-03-14T00:37:42;16.40;;;4.43;;
72115;SDS011;59991;52.140;5.428;2023-03-14T00:38:14;20.75;;;5.40;;
72115;SDS011;59991;52.140;5.428;2023-03-14T00:38:46;18.52;;;4.55;;
72115;SDS011;59991;52.140;5.428;2023-03-14T00:39:19;12.95;;;4.35;;
72115;SDS011;59991;52.140;5.428;2023-03-14T00:39:51;14.32;;;4.68;;
72115;SDS011;59991;52.140;5.428;2023-03-14T00:40:23;15.60;;;4.25;;
72115;SDS011;59991;52.140;5.428;2023-03-14T00:40:54;16.33;;;3.75;;
72115;SDS011;59991;52.140;5.428;2023-03-14T00:41:25;13.90;;;4.10;;
72115;SDS011;59991;52.140;5.428;2023-03-14T00:41:57;14.88;;;3.47;;
72115;SDS011;59991;52.140;5.428;2023-03-14T00:42:28;16.30;;;4.22;;
72115;SDS011;59991;52.140;5.428;2023-03-14T00:43:00;15.07;;;5.03;;
72115;SDS011;59991;52.140;5.428;2023-03-14T00:43:31;13.65;;;4.63;;
72115;SDS011;59991;52.140;5.428;2023-03-14T00:44:02;13.50;;;3.88;;
72115;SDS011;59991;52.140;5.428;2023-03-14T00:44:34;13.23;;;3.33;;
72115;SDS011;59991;52.140;5.428;2023-03-14T00:45:05;13.35;;;4.22;;
72115;SDS011;59991;52.140;5.428;2023-03-14T00:45:38;11.57;;;2.80;;
72115;SDS011;59991;52.140;5.428;2023-03-14T00:46:10;15.80;;;4.78;;
72115;SDS011;59991;52.140;5.428;2023-03-14T00:46:42;12.17;;;4.10;;
72115;SDS011;59991;52.140;5.428;2023-03-14T00:47:13;15.88;;;4.20;;
72115;SDS011;59991;52.140;5.428;2023-03-14T00:47:45;13.75;;;3.28;;
72115;SDS011;59991;52.140;5.428;2023-03-14T00:48:17;16.73;;;4.95;;
72115;SDS011;59991;52.140;5.428;2023-03-14T00:48:49;9.18;;;3.58;;
72115;SDS011;59991;52.140;5.428;2023-03-14T00:49:21;13.45;;;3.05;;
72115;SDS011;59991;52.140;5.428;2023-03-14T00:49:52;10.75;;;2.63;;
72115;SDS011;59991;52.140;5.428;2023-03-14T00:50:24;15.40;;;3.63;;
72115;SDS011;59991;52.140;5.428;2023-03-14T00:50:55;10.40;;;3.05;;
72115;SDS011;59991;52.140;5.428;2023-03-14T00:51:27;10.38;;;2.45;;
72115;SDS011;59991;52.140;5.428;2023-03-14T00:51:58;11.20;;;3.03;;
72115;SDS011;59991;52.140;5.428;2023-03-14T00:52:29;9.68;;;2.97;;
72115;SDS011;59991;52.140;5.428;2023-03-14T00:53:01;14.73;;;3.80;;
72115;SDS011;59991;52.140;5.428;2023-03-14T00:53:35;14.18;;;3.67;;
72115;SDS011;59991;52.140;5.428;2023-03-14T00:54:08;16.85;;;3.83;;
72115;SDS011;59991;52.140;5.428;2023-03-14T00:54:39;14.27;;;3.17;;
72115;SDS011;59991;52.140;5.428;2023-03-14T00:55:11;14.82;;;2.92;;
72115;SDS011;59991;52.140;5.428;2023-03-14T00:55:43;12.05;;;2.90;;
72115;SDS011;59991;52.140;5.428;2023-03-14T00:56:15;8.27;;;3.10;;
72115;SDS011;59991;52.140;5.428;2023-03-14T00:56:47;7.82;;;2.67;;
72115;SDS011;59991;52.140;5.428;2023-03-14T00:57:18;14.40;;;3.00;;
72115;SDS011;59991;52.140;5.428;2023-03-14T00:57:49;10.88;;;2.92;;
72115;SDS011;59991;52.140;5.428;2023-03-14T00:58:21;16.55;;;4.15;;
72115;SDS011;59991;52.140;5.428;2023-03-14T00:58:54;8.95;;;3.15;;
72115;SDS011;59991;52.140;5.428;2023-03-14T00:59:26;14.45;;;3.08;;
72115;SDS011;59991;52.140;5.428;2023-03-14T00:59:58;9.60;;;3.33;;
72115;SDS011;59991;52.140;5.428;2023-03-14T01:00:29;10.52;;;2.75;;
72115;SDS011;59991;52.140;5.428;2023-03-14T01:01:13;10.95;;;3.35;;
72115;SDS011;59991;52.140;5.428;2023-03-14T01:01:46;14.68;;;4.55;;
72115;SDS011;59991;52.140;5.428;2023-03-14T01:02:18;11.13;;;2.95;;
72115;SDS011;59991;52.140;5.428;2023-03-14T01:02:49;10.07;;;2.53;;
72115;SDS011;59991;52.140;5.428;2023-03-14T01:03:20;11.13;;;3.08;;
72115;SDS011;59991;52.140;5.428;2023-03-14T01:03:53;15.90;;;4.53;;
72115;SDS011;59991;52.140;5.428;2023-03-14T01:04:26;16.85;;;4.60;;
72115;SDS011;59991;52.140;5.428;2023-03-14T01:04:57;12.38;;;3.05;;
72115;SDS011;59991;52.140;5.428;2023-03-14T01:05:29;10.70;;;2.67;;
72115;SDS011;59991;52.140;5.428;2023-03-14T01:06:14;10.95;;;3.20;;
72115;SDS011;59991;52.140;5.428;2023-03-14T01:06:47;13.38;;;3.53;;
72115;SDS011;59991;52.140;5.428;2023-03-14T01:07:19;12.85;;;3.55;;
72115;SDS011;59991;52.140;5.428;2023-03-14T01:07:50;16.45;;;2.97;;
72115;SDS011;59991;52.140;5.428;2023-03-14T01:08:21;18.80;;;5.07;;
72115;SDS011;59991;52.140;5.428;2023-03-14T01:08:53;8.57;;;3.25;;
72115;SDS011;59991;52.140;5.428;2023-03-14T01:09:25;15.25;;;3.30;;
72115;SDS011;59991;52.140;5.428;2023-03-14T01:09:57;9.57;;;3.40;;
72115;SDS011;59991;52.140;5.428;2023-03-14T01:10:28;16.00;;;4.20;;
72115;SDS011;59991;52.140;5.428;2023-03-14T01:11:04;14.35;;;3.38;;
72115;SDS011;59991;52.140;5.428;2023-03-14T01:11:36;13.25;;;3.17;;
72115;SDS011;59991;52.140;5.428;2023-03-14T01:12:08;9.07;;;3.17;;
72115;SDS011;59991;52.140;5.428;2023-03-14T01:12:39;11.30;;;2.90;;
72115;SDS011;59991;52.140;5.428;2023-03-14T01:13:11;11.95;;;3.47;;
72115;SDS011;59991;52.140;5.428;2023-03-14T01:13:42;9.67;;;3.23;;
72115;SDS011;59991;52.140;5.428;2023-03-14T01:14:14;10.13;;;3.17;;
72115;SDS011;59991;52.140;5.428;2023-03-14T01:14:45;13.70;;;3.90;;
72115;SDS011;59991;52.140;5.428;2023-03-14T01:15:17;9.27;;;3.17;;
72115;SDS011;59991;52.140;5.428;2023-03-14T01:15:50;10.32;;;3.78;;
72115;SDS011;59991;52.140;5.428;2023-03-14T01:16:22;8.98;;;3.13;;
72115;SDS011;59991;52.140;5.428;2023-03-14T01:16:55;9.05;;;3.67;;
72115;SDS011;59991;52.140;5.428;2023-03-14T01:17:31;11.30;;;3.22;;
72115;SDS011;59991;52.140;5.428;2023-03-14T01:18:03;8.45;;;3.33;;
72115;SDS011;59991;52.140;5.428;2023-03-14T01:18:35;8.77;;;3.33;;
72115;SDS011;59991;52.140;5.428;2023-03-14T01:19:06;12.43;;;3.13;;
72115;SDS011;59991;52.140;5.428;2023-03-14T01:19:38;8.00;;;2.70;;
72115;SDS011;59991;52.140;5.428;2023-03-14T01:20:11;9.23;;;2.97;;
72115;SDS011;59991;52.140;5.428;2023-03-14T01:20:43;9.77;;;3.22;;
72115;SDS011;59991;52.140;5.428;2023-03-14T01:21:16;10.10;;;2.47;;
72115;SDS011;59991;52.140;5.428;2023-03-14T01:21:49;9.57;;;4.05;;
72115;SDS011;59991;52.140;5.428;2023-03-14T01:22:21;9.57;;;3.38;;
72115;SDS011;59991;52.140;5.428;2023-03-14T01:22:52;8.88;;;3.25;;
72115;SDS011;59991;52.140;5.428;2023-03-14T01:23:24;10.13;;;3.58;;
72115;SDS011;59991;52.140;5.428;2023-03-14T01:23:56;9.23;;;3.00;;
72115;SDS011;59991;52.140;5.428;2023-03-14T01:24:29;10.50;;;2.90;;
72115;SDS011;59991;52.140;5.428;2023-03-14T01:25:01;14.57;;;4.35;;
72115;SDS011;59991;52.140;5.428;2023-03-14T01:25:33;8.38;;;3.75;;
72115;SDS011;59991;52.140;5.428;2023-03-14T01:26:04;10.05;;;2.80;;
72115;SDS011;59991;52.140;5.428;2023-03-14T01:26:40;8.90;;;2.50;;
72115;SDS011;59991;52.140;5.428;2023-03-14T01:27:11;5.03;;;2.75;;
72115;SDS011;59991;52.140;5.428;2023-03-14T01:27:43;13.50;;;3.75;;
72115;SDS011;59991;52.140;5.428;2023-03-14T01:28:15;10.20;;;2.92;;
72115;SDS011;59991;52.140;5.428;2023-03-14T01:28:47;9.43;;;3.00;;
72115;SDS011;59991;52.140;5.428;2023-03-14T01:29:19;9.93;;;2.63;;
72115;SDS011;59991;52.140;5.428;2023-03-14T01:29:51;9.33;;;2.33;;
72115;SDS011;59991;52.140;5.428;2023-03-14T01:30:22;12.00;;;2.70;;
72115;SDS011;59991;52.140;5.428;2023-03-14T01:30:54;12.13;;;2.00;;
72115;SDS011;59991;52.140;5.428;2023-03-14T01:31:25;6.53;;;3.05;;
72115;SDS011;59991;52.140;5.428;2023-03-14T01:31:57;8.25;;;2.95;;
72115;SDS011;59991;52.140;5.428;2023-03-14T01:32:29;7.03;;;2.10;;
72115;SDS011;59991;52.140;5.428;2023-03-14T01:33:00;9.43;;;2.28;;
72115;SDS011;59991;52.140;5.428;2023-03-14T01:33:32;7.00;;;2.85;;
72115;SDS011;59991;52.140;5.428;2023-03-14T01:34:04;7.82;;;2.33;;
72115;SDS011;59991;52.140;5.428;2023-03-14T01:34:35;12.98;;;4.00;;
72115;SDS011;59991;52.140;5.428;2023-03-14T01:35:07;6.73;;;3.03;;
72115;SDS011;59991;52.140;5.428;2023-03-14T01:35:38;9.48;;;2.97;;
72115;SDS011;59991;52.140;5.428;2023-03-14T01:36:10;14.27;;;2.80;;
72115;SDS011;59991;52.140;5.428;2023-03-14T01:36:42;10.05;;;3.28;;
72115;SDS011;59991;52.140;5.428;2023-03-14T01:37:13;12.23;;;3.00;;
72115;SDS011;59991;52.140;5.428;2023-03-14T01:37:45;6.50;;;2.72;;
72115;SDS011;59991;52.140;5.428;2023-03-14T01:38:16;9.77;;;3.05;;
72115;SDS011;59991;52.140;5.428;2023-03-14T01:38:48;10.35;;;2.60;;
72115;SDS011;59991;52.140;5.428;2023-03-14T01:39:19;4.82;;;2.60;;
72115;SDS011;59991;52.140;5.428;2023-03-14T01:39:50;8.50;;;4.20;;
72115;SDS011;59991;52.140;5.428;2023-03-14T01:40:22;12.90;;;2.73;;
72115;SDS011;59991;52.140;5.428;2023-03-14T01:40:53;9.32;;;2.38;;
72115;SDS011;59991;52.140;5.428;2023-03-14T01:41:25;8.23;;;2.90;;
72115;SDS011;59991;52.140;5.428;2023-03-14T01:41:57;7.90;;;3.15;;
72115;SDS011;59991;52.140;5.428;2023-03-14T01:42:30;8.38;;;2.30;;
72115;SDS011;59991;52.140;5.428;2023-03-14T01:43:06;12.43;;;2.83;;
72115;SDS011;59991;52.140;5.428;2023-03-14T01:43:45;8.93;;;2.30;;
72115;SDS011;59991;52.140;5.428;2023-03-14T01:44:17;6.75;;;2.22;;
72115;SDS011;59991;52.140;5.428;2023-03-14T01:44:53;7.13;;;3.25;;
72115;SDS011;59991;52.140;5.428;2023-03-14T01:46:36;8.93;;;2.27;;
72115;SDS011;59991;52.140;5.428;2023-03-14T01:47:11;9.73;;;2.97;;
72115;SDS011;59991;52.140;5.428;2023-03-14T01:47:42;8.40;;;3.00;;
72115;SDS011;59991;52.140;5.428;2023-03-14T01:48:13;10.40;;;3.00;;
72115;SDS011;59991;52.140;5.428;2023-03-14T01:49:32;12.00;;;2.88;;
72115;SDS011;59991;52.140;5.428;2023-03-14T01:50:08;9.57;;;3.20;;
72115;SDS011;59991;52.140;5.428;2023-03-14T01:50:42;6.18;;;2.63;;
72115;SDS011;59991;52.140;5.428;2023-03-14T01:51:16;11.32;;;2.72;;
72115;SDS011;59991;52.140;5.428;2023-03-14T01:52:02;10.93;;;2.92;;
72115;SDS011;59991;52.140;5.428;2023-03-14T01:52:39;10.40;;;2.97;;
72115;SDS011;59991;52.140;5.428;2023-03-14T01:53:14;9.95;;;2.13;;
72115;SDS011;59991;52.140;5.428;2023-03-14T01:53:46;8.30;;;2.53;;
72115;SDS011;59991;52.140;5.428;2023-03-14T01:54:41;6.60;;;2.58;;
72115;SDS011;59991;52.140;5.428;2023-03-14T01:55:15;7.38;;;2.20;;
72115;SDS011;59991;52.140;5.428;2023-03-14T01:55:49;8.02;;;2.83;;
72115;SDS011;59991;52.140;5.428;2023-03-14T01:56:23;13.50;;;2.63;;
72115;SDS011;59991;52.140;5.428;2023-03-14T01:56:57;7.32;;;2.45;;
72115;SDS011;59991;52.140;5.428;2023-03-14T01:57:37;9.30;;;2.60;;
72115;SDS011;59991;52.140;5.428;2023-03-14T01:58:16;9.45;;;3.42;;
72115;SDS011;59991;52.140;5.428;2023-03-14T01:58:48;8.87;;;2.57;;
72115;SDS011;59991;52.140;5.428;2023-03-14T01:59:23;10.23;;;2.22;;
72115;SDS011;59991;52.140;5.428;2023-03-14T01:59:57;9.20;;;2.45;;
72115;SDS011;59991;52.140;5.428;2023-03-14T02:00:32;6.35;;;2.80;;
72115;SDS011;59991;52.140;5.428;2023-03-14T02:01:03;10.95;;;4.05;;
72115;SDS011;59991;52.140;5.428;2023-03-14T02:01:35;9.20;;;2.50;;
72115;SDS011;59991;52.140;5.428;2023-03-14T02:02:09;6.55;;;2.35;;
72115;SDS011;59991;52.140;5.428;2023-03-14T02:02:45;10.25;;;2.78;;
72115;SDS011;59991;52.140;5.428;2023-03-14T02:03:18;11.73;;;3.45;;
72115;SDS011;59991;52.140;5.428;2023-03-14T02:03:56;13.60;;;2.60;;
72115;SDS011;59991;52.140;5.428;2023-03-14T02:04:31;12.47;;;3.03;;
72115;SDS011;59991;52.140;5.428;2023-03-14T02:05:05;9.13;;;2.65;;
72115;SDS011;59991;52.140;5.428;2023-03-14T02:05:38;10.00;;;3.20;;
72115;SDS011;59991;52.140;5.428;2023-03-14T02:06:11;9.07;;;2.97;;
72115;SDS011;59991;52.140;5.428;2023-03-14T02:07:27;9.20;;;2.50;;
72115;SDS011;59991;52.140;5.428;2023-03-14T02:08:05;12.38;;;2.58;;
72115;SDS011;59991;52.140;5.428;2023-03-14T02:08:39;9.73;;;2.75;;
72115;SDS011;59991;52.140;5.428;2023-03-14T02:09:11;11.23;;;2.75;;
72115;SDS011;59991;52.140;5.428;2023-03-14T02:09:42;13.65;;;2.50;;
72115;SDS011;59991;52.140;5.428;2023-03-14T02:10:14;12.87;;;4.40;;
72115;SDS011;59991;52.140;5.428;2023-03-14T02:10:51;7.18;;;2.25;;
72115;SDS011;59991;52.140;5.428;2023-03-14T02:11:23;7.03;;;2.70;;
72115;SDS011;59991;52.140;5.428;2023-03-14T02:11:59;11.88;;;2.92;;
72115;SDS011;59991;52.140;5.428;2023-03-14T02:12:31;9.65;;;2.95;;
72115;SDS011;59991;52.140;5.428;2023-03-14T02:13:04;6.93;;;2.13;;
72115;SDS011;59991;52.140;5.428;2023-03-14T02:13:37;10.07;;;2.38;;
72115;SDS011;59991;52.140;5.428;2023-03-14T02:14:09;11.25;;;2.95;;
72115;SDS011;59991;52.140;5.428;2023-03-14T02:14:50;9.50;;;2.30;;
72115;SDS011;59991;52.140;5.428;2023-03-14T02:15:22;5.85;;;2.22;;
72115;SDS011;59991;52.140;5.428;2023-03-14T02:15:54;11.93;;;3.03;;
72115;SDS011;59991;52.140;5.428;2023-03-14T02:16:25;9.85;;;2.08;;
72115;SDS011;59991;52.140;5.428;2023-03-14T02:16:57;10.60;;;2.53;;
72115;SDS011;59991;52.140;5.428;2023-03-14T02:17:29;10.88;;;2.13;;
72115;SDS011;59991;52.140;5.428;2023-03-14T02:18:01;9.95;;;2.53;;
72115;SDS011;59991;52.140;5.428;2023-03-14T02:18:34;11.35;;;2.88;;
72115;SDS011;59991;52.140;5.428;2023-03-14T02:19:06;9.25;;;2.35;;
72115;SDS011;59991;52.140;5.428;2023-03-14T02:20:30;9.45;;;3.28;;
72115;SDS011;59991;52.140;5.428;2023-03-14T02:21:53;6.28;;;1.95;;
72115;SDS011;59991;52.140;5.428;2023-03-14T02:22:15;12.83;;;2.70;;
72115;SDS011;59991;52.140;5.428;2023-03-14T02:22:47;7.80;;;2.40;;
72115;SDS011;59991;52.140;5.428;2023-03-14T02:23:28;7.18;;;2.03;;
72115;SDS011;59991;52.140;5.428;2023-03-14T02:24:18;9.65;;;3.05;;
72115;SDS011;59991;52.140;5.428;2023-03-14T02:25:08;8.73;;;2.53;;
72115;SDS011;59991;52.140;5.428;2023-03-14T02:26:06;10.55;;;2.70;;
72115;SDS011;59991;52.140;5.428;2023-03-14T02:27:03;5.78;;;2.55;;
72115;SDS011;59991;52.140;5.428;2023-03-14T02:27:36;6.93;;;2.67;;
72115;SDS011;59991;52.140;5.428;2023-03-14T02:28:09;8.80;;;2.30;;
72115;SDS011;59991;52.140;5.428;2023-03-14T02:28:41;6.95;;;1.80;;
72115;SDS011;59991;52.140;5.428;2023-03-14T02:29:13;8.13;;;2.43;;
72115;SDS011;59991;52.140;5.428;2023-03-14T02:29:55;5.88;;;2.38;;
72115;SDS011;59991;52.140;5.428;2023-03-14T02:30:31;8.15;;;2.05;;
72115;SDS011;59991;52.140;5.428;2023-03-14T02:31:04;6.53;;;2.75;;
72115;SDS011;59991;52.140;5.428;2023-03-14T02:31:35;9.10;;;1.92;;
72115;SDS011;59991;52.140;5.428;2023-03-14T02:32:07;8.70;;;2.38;;
72115;SDS011;59991;52.140;5.428;2023-03-14T02:32:40;6.72;;;2.03;;
72115;SDS011;59991;52.140;5.428;2023-03-14T02:33:18;7.53;;;1.88;;
72115;SDS011;59991;52.140;5.428;2023-03-14T02:33:51;7.32;;;2.00;;
72115;SDS011;59991;52.140;5.428;2023-03-14T02:34:23;5.47;;;2.35;;
72115;SDS011;59991;52.140;5.428;2023-03-14T02:34:57;6.83;;;2.17;;
72115;SDS011;59991;52.140;5.428;2023-03-14T02:35:40;6.90;;;2.13;;
72115;SDS011;59991;52.140;5.428;2023-03-14T02:36:15;4.50;;;2.03;;
72115;SDS011;59991;52.140;5.428;2023-03-14T02:36:48;11.23;;;3.65;;
72115;SDS011;59991;52.140;5.428;2023-03-14T02:37:20;6.75;;;2.47;;
72115;SDS011;59991;52.140;5.428;2023-03-14T02:38:00;7.85;;;2.08;;
72115;SDS011;59991;52.140;5.428;2023-03-14T02:38:53;9.18;;;2.92;;
72115;SDS011;59991;52.140;5.428;2023-03-14T02:39:36;5.90;;;1.70;;
72115;SDS011;59991;52.140;5.428;2023-03-14T02:40:10;5.88;;;2.25;;
72115;SDS011;59991;52.140;5.428;2023-03-14T02:40:42;7.20;;;2.00;;
72115;SDS011;59991;52.140;5.428;2023-03-14T02:41:14;5.77;;;2.00;;
72115;SDS011;59991;52.140;5.428;2023-03-14T02:41:47;8.77;;;2.33;;
72115;SDS011;59991;52.140;5.428;2023-03-14T02:42:20;8.52;;;2.60;;
72115;SDS011;59991;52.140;5.428;2023-03-14T02:42:52;4.85;;;2.38;;
72115;SDS011;59991;52.140;5.428;2023-03-14T02:43:23;11.35;;;2.72;;
72115;SDS011;59991;52.140;5.428;2023-03-14T02:43:55;6.97;;;2.15;;
72115;SDS011;59991;52.140;5.428;2023-03-14T02:44:27;10.15;;;2.63;;
72115;SDS011;59991;52.140;5.428;2023-03-14T02:45:40;6.90;;;2.95;;
72115;SDS011;59991;52.140;5.428;2023-03-14T02:46:14;8.20;;;2.38;;
72115;SDS011;59991;52.140;5.428;2023-03-14T02:46:49;9.47;;;2.63;;
72115;SDS011;59991;52.140;5.428;2023-03-14T02:47:26;8.82;;;2.20;;
72115;SDS011;59991;52.140;5.428;2023-03-14T02:48:01;5.60;;;2.17;;
72115;SDS011;59991;52.140;5.428;2023-03-14T02:48:39;12.50;;;2.92;;
72115;SDS011;59991;52.140;5.428;2023-03-14T02:49:16;8.25;;;3.20;;
72115;SDS011;59991;52.140;5.428;2023-03-14T02:49:48;6.10;;;2.50;;
72115;SDS011;59991;52.140;5.428;2023-03-14T02:50:21;9.98;;;2.97;;
72115;SDS011;59991;52.140;5.428;2023-03-14T02:50:57;9.35;;;2.90;;
72115;SDS011;59991;52.140;5.428;2023-03-14T02:51:30;6.85;;;2.05;;
72115;SDS011;59991;52.140;5.428;2023-03-14T02:52:03;4.32;;;2.22;;
72115;SDS011;59991;52.140;5.428;2023-03-14T02:52:34;9.17;;;3.10;;
72115;SDS011;59991;52.140;5.428;2023-03-14T02:53:06;4.38;;;2.38;;
72115;SDS011;59991;52.140;5.428;2023-03-14T02:53:38;9.80;;;2.85;;
72115;SDS011;59991;52.140;5.428;2023-03-14T02:54:12;7.82;;;3.40;;
72115;SDS011;59991;52.140;5.428;2023-03-14T02:54:44;9.20;;;2.55;;
72115;SDS011;59991;52.140;5.428;2023-03-14T02:55:20;8.32;;;3.05;;
72115;SDS011;59991;52.140;5.428;2023-03-14T02:55:52;7.47;;;2.60;;
72115;SDS011;59991;52.140;5.428;2023-03-14T02:56:24;10.50;;;3.00;;
72115;SDS011;59991;52.140;5.428;2023-03-14T02:56:55;7.70;;;3.63;;
72115;SDS011;59991;52.140;5.428;2023-03-14T02:57:27;12.40;;;2.80;;
72115;SDS011;59991;52.140;5.428;2023-03-14T02:57:58;8.57;;;3.63;;
72115;SDS011;59991;52.140;5.428;2023-03-14T02:58:30;6.78;;;2.40;;
72115;SDS011;59991;52.140;5.428;2023-03-14T02:59:04;5.68;;;2.83;;
72115;SDS011;59991;52.140;5.428;2023-03-14T02:59:36;6.53;;;2.85;;
72115;SDS011;59991;52.140;5.428;2023-03-14T03:00:08;9.75;;;2.65;;
72115;SDS011;59991;52.140;5.428;2023-03-14T03:00:40;9.10;;;2.88;;
72115;SDS011;59991;52.140;5.428;2023-03-14T03:01:11;9.88;;;2.90;;
72115;SDS011;59991;52.140;5.428;2023-03-14T03:01:43;11.20;;;3.15;;
72115;SDS011;59991;52.140;5.428;2023-03-14T03:02:14;7.13;;;2.58;;
72115;SDS011;59991;52.140;5.428;2023-03-14T03:02:46;6.97;;;3.45;;
72115;SDS011;59991;52.140;5.428;2023-03-14T03:03:18;9.27;;;2.93;;
72115;SDS011;59991;52.140;5.428;2023-03-14T03:03:49;7.85;;;2.67;;
72115;SDS011;59991;52.140;5.428;2023-03-14T03:04:21;7.68;;;2.55;;
72115;SDS011;59991;52.140;5.428;2023-03-14T03:04:52;9.63;;;3.25;;
72115;SDS011;59991;52.140;5.428;2023-03-14T03:05:24;9.27;;;3.50;;
72115;SDS011;59991;52.140;5.428;2023-03-14T03:05:56;11.77;;;3.78;;
72115;SDS011;59991;52.140;5.428;2023-03-14T03:06:28;8.35;;;3.17;;
72115;SDS011;59991;52.140;5.428;2023-03-14T03:07:00;8.82;;;3.30;;
72115;SDS011;59991;52.140;5.428;2023-03-14T03:07:31;6.10;;;2.60;;
72115;SDS011;59991;52.140;5.428;2023-03-14T03:08:03;7.35;;;2.75;;
72115;SDS011;59991;52.140;5.428;2023-03-14T03:08:35;7.23;;;2.50;;
72115;SDS011;59991;52.140;5.428;2023-03-14T03:09:06;9.35;;;3.22;;
72115;SDS011;59991;52.140;5.428;2023-03-14T03:09:38;5.93;;;3.08;;
72115;SDS011;59991;52.140;5.428;2023-03-14T03:10:09;8.00;;;3.10;;
72115;SDS011;59991;52.140;5.428;2023-03-14T03:10:41;6.10;;;2.60;;
72115;SDS011;59991;52.140;5.428;2023-03-14T03:11:12;8.65;;;3.30;;
72115;SDS011;59991;52.140;5.428;2023-03-14T03:11:44;9.25;;;2.85;;
72115;SDS011;59991;52.140;5.428;2023-03-14T03:12:15;10.93;;;3.28;;
72115;SDS011;59991;52.140;5.428;2023-03-14T03:12:47;6.00;;;3.17;;
72115;SDS011;59991;52.140;5.428;2023-03-14T03:13:18;6.22;;;2.67;;
72115;SDS011;59991;52.140;5.428;2023-03-14T03:13:50;8.13;;;3.87;;
72115;SDS011;59991;52.140;5.428;2023-03-14T03:14:22;9.73;;;3.20;;
72115;SDS011;59991;52.140;5.428;2023-03-14T03:14:53;7.45;;;3.22;;
72115;SDS011;59991;52.140;5.428;2023-03-14T03:15:25;7.60;;;3.25;;
72115;SDS011;59991;52.140;5.428;2023-03-14T03:15:57;7.07;;;3.03;;
72115;SDS011;59991;52.140;5.428;2023-03-14T03:16:29;6.50;;;4.38;;
72115;SDS011;59991;52.140;5.428;2023-03-14T03:17:00;7.47;;;3.13;;
72115;SDS011;59991;52.140;5.428;2023-03-14T03:17:32;12.98;;;3.47;;
72115;SDS011;59991;52.140;5.428;2023-03-14T03:18:03;7.18;;;3.10;;
72115;SDS011;59991;52.140;5.428;2023-03-14T03:18:35;7.80;;;3.42;;
72115;SDS011;59991;52.140;5.428;2023-03-14T03:19:06;8.97;;;3.63;;
72115;SDS011;59991;52.140;5.428;2023-03-14T03:19:37;8.25;;;2.72;;
72115;SDS011;59991;52.140;5.428;2023-03-14T03:20:09;10.25;;;3.70;;
72115;SDS011;59991;52.140;5.428;2023-03-14T03:20:41;12.27;;;4.20;;
72115;SDS011;59991;52.140;5.428;2023-03-14T03:21:13;11.55;;;3.88;;
72115;SDS011;59991;52.140;5.428;2023-03-14T03:21:44;9.27;;;3.40;;
72115;SDS011;59991;52.140;5.428;2023-03-14T03:22:16;6.05;;;2.55;;
72115;SDS011;59991;52.140;5.428;2023-03-14T03:22:47;6.47;;;3.28;;